Time;durP1;ratioP1;P1;durP2;ratioP2;P2;SDS_P1;SDS_P2;PMS_P1;PMS_P2;Temp;Humidity;BMP_temperature;BMP_pressure;BME280_temperature;BME280_humidity;BME280_pressure;Samples;Min_cycle;Max_cycle;Signal;HPM_P1;HPM_P2
2022/03/10 00:01:23;;;;;;;;;;;6.20;44.40;;;;;;8408770;28;19958;-70
2022/03/10 00:05:25;;;;;;;;;;;6.10;44.10;;;;;;8386860;28;19924;-70
2022/03/10 00:09:26;;;;;;;;;;;5.90;44.30;;;;;;8392146;28;20612;-70
2022/03/10 00:13:30;;;;;;;;;;;5.70;44.80;;;;;;8401605;28;20371;-70
2022/03/10 00:17:31;;;;;;;;;;;5.60;45.00;;;;;;8412309;28;19944;-70
2022/03/10 00:21:33;;;;;;;;;;;5.50;45.30;;;;;;8421331;28;19924;-70
2022/03/10 00:25:35;;;;;;;;;;;5.50;45.80;;;;;;8409441;28;19932;-70
2022/03/10 00:29:37;;;;;;;;;;;5.50;45.60;;;;;;8404315;28;20260;-70
2022/03/10 00:33:38;;;;;;;;;;;5.60;46.10;;;;;;8413761;28;19936;-70
2022/03/10 00:37:40;;;;;;;;;;;5.50;45.80;;;;;;8397447;28;19925;-70
2022/03/10 00:41:44;;;;;;;;;;;5.60;47.00;;;;;;8415555;28;19960;-70
2022/03/10 00:45:46;;;;;;;;;;;5.60;45.80;;;;;;8411666;28;19939;-70
2022/03/10 00:49:48;;;;;;;;;;;5.60;46.10;;;;;;8385288;28;20110;-70
2022/03/10 00:53:49;;;;;;;;;;;5.60;46.50;;;;;;8410844;28;19969;-70
2022/03/10 00:57:51;;;;;;;;;;;5.60;46.00;;;;;;8396329;28;19992;-70
2022/03/10 01:01:53;;;;;;;;;;;5.60;46.80;;;;;;8403227;28;19928;-70
2022/03/10 01:05:54;;;;;;;;;;;5.60;46.80;;;;;;8392028;28;19924;-70
2022/03/10 01:09:56;;;;;;;;;;;5.60;47.80;;;;;;8406890;28;19939;-70
2022/03/10 01:13:58;;;;;;;;;;;5.60;47.40;;;;;;8407784;28;19925;-70
2022/03/10 01:17:59;;;;;;;;;;;5.60;47.60;;;;;;8391216;28;19978;-70
2022/03/10 01:22:02;;;;;;;;;;;5.60;47.20;;;;;;8372663;28;19924;-70
2022/03/10 01:26:03;;;;;;;;;;;5.60;47.60;;;;;;8407481;28;19924;-70
2022/03/10 01:30:06;;;;;;;;;;;5.60;47.60;;;;;;8408073;28;19928;-70
2022/03/10 01:34:07;;;;;;;;;;;5.50;46.30;;;;;;8409073;28;19932;-70
2022/03/10 01:38:09;;;;;;;;;;;5.50;46.60;;;;;;8415197;28;19986;-70
2022/03/10 01:42:11;;;;;;;;;;;5.40;46.60;;;;;;8397414;28;19957;-70
2022/03/10 01:46:12;;;;;;;;;;;5.40;46.20;;;;;;8390227;28;19925;-69
2022/03/10 01:50:15;;;;;;;;;;;5.30;46.50;;;;;;8392261;28;20721;-70
2022/03/10 01:54:18;;;;;;;;;;;5.30;46.50;;;;;;8405906;28;19947;-70
2022/03/10 01:58:19;;;;;;;;;;;5.20;46.50;;;;;;8413453;28;19928;-70
2022/03/10 02:02:21;;;;;;;;;;;5.10;46.20;;;;;;8412767;28;20299;-70
2022/03/10 02:06:24;;;;;;;;;;;5.10;46.90;;;;;;8423090;28;19993;-69
2022/03/10 02:10:26;;;;;;;;;;;5.00;46.30;;;;;;8397587;28;19935;-70
2022/03/10 02:18:48;;;;;;;;;;;4.80;47.10;;;;;;8418129;28;19939;-70
2022/03/10 02:22:50;;;;;;;;;;;4.80;46.90;;;;;;8410348;28;19928;-70
2022/03/10 02:26:51;;;;;;;;;;;4.70;47.00;;;;;;8414505;28;20295;-70
2022/03/10 02:30:54;;;;;;;;;;;4.70;47.00;;;;;;8412087;28;19924;-70
2022/03/10 02:34:55;;;;;;;;;;;4.60;47.00;;;;;;8394842;28;19924;-70
2022/03/10 02:38:57;;;;;;;;;;;4.60;47.50;;;;;;8406564;28;19943;-70
2022/03/10 02:42:59;;;;;;;;;;;4.50;47.50;;;;;;8408605;28;19940;-70
2022/03/10 02:47:00;;;;;;;;;;;4.50;47.70;;;;;;8416699;28;20318;-70
2022/03/10 02:51:02;;;;;;;;;;;4.50;47.30;;;;;;8414316;28;20371;-70
2022/03/10 02:55:04;;;;;;;;;;;4.40;47.90;;;;;;8409931;28;19940;-70
2022/03/10 02:59:06;;;;;;;;;;;4.40;48.10;;;;;;8415705;28;20321;-70
2022/03/10 03:03:07;;;;;;;;;;;4.40;47.70;;;;;;8409136;28;19928;-70
2022/03/10 03:07:09;;;;;;;;;;;4.40;48.10;;;;;;8403384;28;19969;-70
2022/03/10 03:11:11;;;;;;;;;;;4.30;48.20;;;;;;8406953;28;19932;-70
2022/03/10 03:15:12;;;;;;;;;;;4.30;48.20;;;;;;8395143;28;19931;-70
2022/03/10 03:19:14;;;;;;;;;;;4.20;48.20;;;;;;8389627;28;19935;-70
2022/03/10 03:23:17;;;;;;;;;;;4.20;48.80;;;;;;8397851;28;19923;-70
2022/03/10 03:27:21;;;;;;;;;;;4.20;48.90;;;;;;8404783;28;19928;-70
2022/03/10 03:31:23;;;;;;;;;;;4.10;49.40;;;;;;8391538;28;19946;-69
2022/03/10 03:35:25;;;;;;;;;;;4.20;49.00;;;;;;8388260;28;19943;-70
2022/03/10 03:39:26;;;;;;;;;;;4.10;49.70;;;;;;8387134;28;20547;-69
2022/03/10 03:43:28;;;;;;;;;;;4.10;49.10;;;;;;8425055;28;19931;-72
2022/03/10 03:47:30;;;;;;;;;;;4.10;50.00;;;;;;8409382;28;19928;-70
2022/03/10 03:51:31;;;;;;;;;;;4.10;50.20;;;;;;8394721;28;19938;-70
2022/03/10 03:55:33;;;;;;;;;;;4.10;50.60;;;;;;8414857;28;20299;-70
2022/03/10 03:59:34;;;;;;;;;;;4.10;50.10;;;;;;8406853;28;19932;-70
2022/03/10 04:03:36;;;;;;;;;;;4.10;49.80;;;;;;8419724;28;19928;-69
2022/03/10 04:07:38;;;;;;;;;;;4.00;50.40;;;;;;8384277;28;19925;-70
2022/03/10 04:11:40;;;;;;;;;;;4.00;51.80;;;;;;8412447;28;19959;-70
2022/03/10 04:15:41;;;;;;;;;;;4.00;50.40;;;;;;8410570;28;19932;-69
2022/03/10 04:19:43;;;;;;;;;;;4.00;51.20;;;;;;8378517;28;19932;-70
2022/03/10 04:23:45;;;;;;;;;;;4.00;50.90;;;;;;8415363;28;19972;-70
2022/03/10 04:27:46;;;;;;;;;;;3.90;50.60;;;;;;8406084;28;19935;-70
2022/03/10 04:31:48;;;;;;;;;;;3.90;50.70;;;;;;8403931;28;19932;-70
2022/03/10 04:35:51;;;;;;;;;;;3.80;50.70;;;;;;8414269;28;19928;-70
2022/03/10 04:39:53;;;;;;;;;;;3.80;50.60;;;;;;8414882;28;19928;-70
2022/03/10 04:43:54;;;;;;;;;;;3.80;51.10;;;;;;8408476;28;20283;-70
2022/03/10 04:47:59;;;;;;;;;;;3.80;51.50;;;;;;8416756;28;19932;-70
2022/03/10 04:52:00;;;;;;;;;;;3.70;51.20;;;;;;8414788;28;19924;-70
2022/03/10 04:56:02;;;;;;;;;;;3.70;51.10;;;;;;8418516;28;19932;-70
2022/03/10 05:00:08;;;;;;;;;;;3.70;51.40;;;;;;8416696;28;19942;-70
2022/03/10 05:04:10;;;;;;;;;;;3.60;51.40;;;;;;8421009;28;19924;-70
2022/03/10 05:08:11;;;;;;;;;;;3.60;52.00;;;;;;8419590;28;20303;-70
2022/03/10 05:12:13;;;;;;;;;;;3.60;51.30;;;;;;8420790;28;20375;-70
2022/03/10 05:16:14;;;;;;;;;;;3.60;51.10;;;;;;8417748;28;19928;-70
2022/03/10 05:20:17;;;;;;;;;;;3.50;51.00;;;;;;8425537;28;19924;-70
2022/03/10 05:24:18;;;;;;;;;;;3.50;52.30;;;;;;8427056;28;19928;-70
2022/03/10 05:28:26;;;;;;;;;;;3.50;51.10;;;;;;8404121;28;19928;-69
2022/03/10 05:32:28;;;;;;;;;;;3.50;53.10;;;;;;8423122;28;19947;-70
2022/03/10 05:36:31;;;;;;;;;;;3.40;52.30;;;;;;8422224;28;20400;-70
2022/03/10 05:40:33;;;;;;;;;;;3.40;52.80;;;;;;8422067;28;19928;-69
2022/03/10 05:44:35;;;;;;;;;;;3.40;54.80;;;;;;8426089;28;20299;-70
2022/03/10 05:48:36;;;;;;;;;;;3.40;52.90;;;;;;8424045;28;20279;-70
2022/03/10 05:52:38;;;;;;;;;;;3.40;54.60;;;;;;8400557;28;20387;-70
2022/03/10 05:56:39;;;;;;;;;;;3.40;52.70;;;;;;8418614;28;20375;-70
2022/03/10 06:00:41;;;;;;;;;;;3.30;54.00;;;;;;8421700;28;19942;-70
2022/03/10 06:04:43;;;;;;;;;;;3.30;52.80;;;;;;8424702;28;19924;-70
2022/03/10 06:08:45;;;;;;;;;;;3.30;52.40;;;;;;8421934;28;19924;-69
2022/03/10 06:12:46;;;;;;;;;;;3.20;54.20;;;;;;8417702;28;20276;-70
2022/03/10 06:16:48;;;;;;;;;;;3.20;53.50;;;;;;8412678;28;20320;-69
2022/03/10 06:20:50;;;;;;;;;;;3.20;53.30;;;;;;8393553;28;19928;-69
2022/03/10 06:24:52;;;;;;;;;;;3.20;53.00;;;;;;8383394;28;19929;-69
2022/03/10 06:28:53;;;;;;;;;;;3.20;52.30;;;;;;8397844;28;19931;-69
2022/03/10 06:32:55;;;;;;;;;;;3.20;52.10;;;;;;8404713;28;19932;-70
2022/03/10 06:36:57;;;;;;;;;;;3.20;52.50;;;;;;8417851;28;19931;-70
2022/03/10 06:40:59;;;;;;;;;;;3.20;53.60;;;;;;8423965;28;19928;-70
2022/03/10 06:45:00;;;;;;;;;;;3.20;53.10;;;;;;8426466;28;19924;-70
2022/03/10 06:49:02;;;;;;;;;;;3.30;53.90;;;;;;8434911;28;19924;-70
2022/03/10 06:53:04;;;;;;;;;;;3.40;53.40;;;;;;8413763;28;20406;-70
2022/03/10 06:57:06;;;;;;;;;;;3.50;54.40;;;;;;8406274;28;19931;-70
2022/03/10 07:01:08;;;;;;;;;;;3.60;55.20;;;;;;8426415;28;19947;-70
2022/03/10 07:05:10;;;;;;;;;;;3.70;56.00;;;;;;8433007;28;19928;-70
2022/03/10 07:09:11;;;;;;;;;;;3.80;54.20;;;;;;8407581;28;19924;-70
2022/03/10 07:13:13;;;;;;;;;;;3.90;54.60;;;;;;8416815;28;19939;-70
2022/03/10 07:17:15;;;;;;;;;;;4.00;56.00;;;;;;8430744;28;19928;-69
2022/03/10 07:21:18;;;;;;;;;;;4.20;56.20;;;;;;8424567;28;19924;-70
2022/03/10 07:25:20;;;;;;;;;;;4.30;55.90;;;;;;8426058;28;19932;-69
2022/03/10 07:29:22;;;;;;;;;;;4.40;55.40;;;;;;8422980;28;19924;-70
2022/03/10 07:33:23;;;;;;;;;;;4.60;56.40;;;;;;8417866;28;19940;-70
2022/03/10 07:37:25;;;;;;;;;;;4.80;56.40;;;;;;8423492;28;20046;-70
2022/03/10 07:41:27;;;;;;;;;;;4.90;56.60;;;;;;8394434;28;19931;-70
2022/03/10 07:45:29;;;;;;;;;;;5.00;56.80;;;;;;8409883;28;19928;-70
2022/03/10 07:49:32;;;;;;;;;;;5.20;56.40;;;;;;8393480;28;19951;-70
2022/03/10 07:53:36;;;;;;;;;;;5.30;57.40;;;;;;8402836;28;19924;-70
2022/03/10 07:57:37;;;;;;;;;;;5.50;57.40;;;;;;8399306;28;19931;-70
2022/03/10 08:01:39;;;;;;;;;;;5.60;57.80;;;;;;8406853;28;20016;-70
2022/03/10 08:05:43;;;;;;;;;;;5.80;57.20;;;;;;8412331;28;20020;-70
2022/03/10 08:09:44;;;;;;;;;;;5.90;57.60;;;;;;8408520;28;19928;-70
2022/03/10 08:13:46;;;;;;;;;;;6.10;58.40;;;;;;8409642;28;19931;-69
2022/03/10 08:17:48;;;;;;;;;;;6.20;58.90;;;;;;8415108;28;19931;-70
2022/03/10 08:21:51;;;;;;;;;;;6.30;59.20;;;;;;8405670;28;19932;-70
2022/03/10 08:25:53;;;;;;;;;;;6.50;58.40;;;;;;8418663;28;19924;-70
2022/03/10 08:29:54;;;;;;;;;;;6.70;58.60;;;;;;8410227;28;20390;-70
2022/03/10 08:33:56;;;;;;;;;;;6.80;59.20;;;;;;8418383;28;19928;-70
2022/03/10 08:37:58;;;;;;;;;;;7.00;61.60;;;;;;8409419;28;19924;-70
2022/03/10 08:41:59;;;;;;;;;;;7.10;60.10;;;;;;8399285;28;19929;-70
2022/03/10 08:46:05;;;;;;;;;;;7.30;60.20;;;;;;8400725;28;19928;-70
2022/03/10 08:50:07;;;;;;;;;;;7.50;61.40;;;;;;8404045;28;19931;-70
2022/03/10 08:54:10;;;;;;;;;;;7.80;59.70;;;;;;8404417;28;19943;-70
2022/03/10 08:58:12;;;;;;;;;;;8.00;60.80;;;;;;8408609;28;19928;-69
2022/03/10 09:02:14;;;;;;;;;;;8.10;60.10;;;;;;8383893;28;19931;-70
2022/03/10 09:06:16;;;;;;;;;;;8.40;60.60;;;;;;8403085;28;20014;-70
2022/03/10 09:10:18;;;;;;;;;;;8.50;61.70;;;;;;8389432;28;19955;-70
2022/03/10 09:14:19;;;;;;;;;;;8.70;60.80;;;;;;8401064;28;19940;-70
2022/03/10 09:18:21;;;;;;;;;;;8.80;61.30;;;;;;8407360;28;20287;-70
2022/03/10 09:22:25;;;;;;;;;;;9.00;61.30;;;;;;8415010;28;19924;-70
2022/03/10 09:26:27;;;;;;;;;;;9.10;61.30;;;;;;8402859;28;19932;-70
2022/03/10 09:30:28;;;;;;;;;;;9.30;61.40;;;;;;8423765;28;19924;-70
2022/03/10 09:34:30;;;;;;;;;;;9.50;61.80;;;;;;8410557;28;20022;-70
2022/03/10 09:38:31;;;;;;;;;;;9.60;62.10;;;;;;8399211;28;19924;-69
2022/03/10 09:42:34;;;;;;;;;;;9.80;61.10;;;;;;8409735;28;19924;-70
2022/03/10 09:46:35;;;;;;;;;;;10.10;60.60;;;;;;8411725;28;19931;-70
2022/03/10 09:50:37;;;;;;;;;;;10.30;60.90;;;;;;8402175;28;20035;-70
2022/03/10 09:54:39;;;;;;;;;;;10.50;61.30;;;;;;8407944;28;20384;-70
2022/03/10 09:58:40;;;;;;;;;;;10.90;61.00;;;;;;8409591;28;19928;-70
2022/03/10 10:02:42;;;;;;;;;;;11.30;61.40;;;;;;8413886;28;19936;-70
2022/03/10 10:07:01;;;;;;;;;;;11.60;61.70;;;;;;8415135;28;20463;-70
2022/03/10 10:11:03;;;;;;;;;;;11.80;63.30;;;;;;8429226;28;19924;-71
2022/03/10 10:15:08;;;;;;;;;;;12.20;65.30;;;;;;8426106;28;19924;-69
2022/03/10 10:19:16;;;;;;;;;;;12.60;66.80;;;;;;8426047;28;19938;-70
2022/03/10 10:23:28;;;;;;;;;;;12.90;69.20;;;;;;8412631;28;19943;-70
2022/03/10 10:27:33;;;;;;;;;;;13.20;69.70;;;;;;8418714;28;19928;-70
2022/03/10 10:31:36;;;;;;;;;;;13.50;71.90;;;;;;8421171;28;19932;-70
2022/03/10 10:35:40;;;;;;;;;;;13.80;73.50;;;;;;8422818;28;19932;-70
2022/03/10 10:39:51;;;;;;;;;;;14.00;69.00;;;;;;8416948;28;19925;-70
2022/03/10 10:44:04;;;;;;;;;;;14.10;71.30;;;;;;8417326;28;20374;-70
2022/03/10 10:48:07;;;;;;;;;;;14.40;72.60;;;;;;8419168;28;19928;-70
2022/03/10 10:52:12;;;;;;;;;;;14.70;74.00;;;;;;8409032;28;20400;-70
2022/03/10 10:56:15;;;;;;;;;;;15.20;77.80;;;;;;8415759;28;19924;-71
2022/03/10 11:00:17;;;;;;;;;;;15.70;80.20;;;;;;8402946;28;19947;-70
2022/03/10 11:04:18;;;;;;;;;;;16.10;82.60;;;;;;8426453;28;19931;-71
2022/03/10 11:08:21;;;;;;;;;;;16.60;83.60;;;;;;8427809;28;19939;-70
2022/03/10 11:12:23;;;;;;;;;;;17.10;85.70;;;;;;8425692;28;19931;-70
2022/03/10 11:16:25;;;;;;;;;;;17.50;82.00;;;;;;8424565;28;20276;-70
2022/03/10 11:20:28;;;;;;;;;;;17.80;84.60;;;;;;8399870;28;19924;-70
2022/03/10 11:24:39;;;;;;;;;;;18.00;81.30;;;;;;8400602;28;19947;-69
2022/03/10 11:28:43;;;;;;;;;;;18.20;81.50;;;;;;8412219;28;19928;-70
2022/03/10 11:32:59;;;;;;;;;;;18.30;81.00;;;;;;8426790;28;19924;-70
2022/03/10 11:37:08;;;;;;;;;;;18.30;73.60;;;;;;8402610;28;19935;-70
2022/03/10 11:41:10;;;;;;;;;;;18.40;74.20;;;;;;8418391;28;19928;-71
2022/03/10 11:45:19;;;;;;;;;;;18.90;77.90;;;;;;8412487;28;19978;-70
2022/03/10 11:49:20;;;;;;;;;;;19.40;81.10;;;;;;8405439;28;19935;-70
2022/03/10 11:53:22;;;;;;;;;;;19.80;80.50;;;;;;8391145;28;19925;-70
2022/03/10 11:57:24;;;;;;;;;;;19.80;75.90;;;;;;8412067;28;19927;-71
2022/03/10 12:01:25;;;;;;;;;;;19.80;76.40;;;;;;8406559;28;20306;-70
2022/03/10 12:05:47;;;;;;;;;;;20.00;76.40;;;;;;8412908;28;19920;-71
2022/03/10 12:10:03;;;;;;;;;;;20.20;75.40;;;;;;8425640;28;19930;-70
2022/03/10 12:14:23;;;;;;;;;;;20.10;70.90;;;;;;8422978;28;19920;-70
2022/03/10 12:18:43;;;;;;;;;;;20.10;70.90;;;;;;8421352;28;19920;-70
2022/03/10 12:23:03;;;;;;;;;;;20.70;72.30;;;;;;8424344;28;19941;-70
2022/03/10 12:27:05;;;;;;;;;;;21.30;67.90;;;;;;8419492;28;20313;-70
2022/03/10 12:31:14;;;;;;;;;;;21.40;66.90;;;;;;8412394;28;19927;-70
2022/03/10 12:35:17;;;;;;;;;;;21.50;65.60;;;;;;8411107;28;20236;-70
2022/03/10 12:39:23;;;;;;;;;;;21.40;63.30;;;;;;8419922;28;20295;-70
2022/03/10 12:43:25;;;;;;;;;;;21.40;64.00;;;;;;8426327;28;19927;-70
2022/03/10 12:47:30;;;;;;;;;;;21.40;60.30;;;;;;8416876;28;20022;-70
2022/03/10 12:51:33;;;;;;;;;;;21.60;63.30;;;;;;8427514;28;19924;-71
2022/03/10 12:55:35;;;;;;;;;;;22.00;58.70;;;;;;8418148;28;19927;-70
2022/03/10 12:59:38;;;;;;;;;;;22.20;64.70;;;;;;8418797;28;19955;-70
2022/03/10 13:03:51;;;;;;;;;;;22.00;62.90;;;;;;8405951;28;19962;-70
2022/03/10 13:08:03;;;;;;;;;;;21.20;55.50;;;;;;8414626;28;19943;-69
2022/03/10 13:12:07;;;;;;;;;;;20.50;53.30;;;;;;8417935;28;20290;-69
2022/03/10 13:16:09;;;;;;;;;;;20.00;50.70;;;;;;8421177;28;19927;-69
2022/03/10 13:20:12;;;;;;;;;;;19.60;49.70;;;;;;8406578;28;19924;-69
2022/03/10 13:24:32;;;;;;;;;;;19.30;49.00;;;;;;8418934;28;19946;-70
2022/03/10 13:28:35;;;;;;;;;;;19.20;48.50;;;;;;8395680;28;19920;-70
2022/03/10 13:32:37;;;;;;;;;;;18.90;48.20;;;;;;8415323;28;19927;-70
2022/03/10 13:36:39;;;;;;;;;;;18.60;47.00;;;;;;8417397;28;19920;-70
2022/03/10 13:40:40;;;;;;;;;;;18.50;47.70;;;;;;8418668;28;19935;-70
2022/03/10 13:44:42;;;;;;;;;;;18.40;47.80;;;;;;8419656;28;20022;-70
2022/03/10 13:48:45;;;;;;;;;;;18.40;48.20;;;;;;8421265;28;19927;-70
2022/03/10 13:53:13;;;;;;;;;;;18.50;48.40;;;;;;8403663;28;19954;-70
2022/03/10 13:57:15;;;;;;;;;;;18.60;48.70;;;;;;8417619;28;19920;-70
2022/03/10 14:01:16;;;;;;;;;;;18.70;48.30;;;;;;8398312;28;19927;-70
2022/03/10 14:05:20;;;;;;;;;;;18.70;48.30;;;;;;8422954;28;19924;-70
2022/03/10 14:09:22;;;;;;;;;;;18.70;48.90;;;;;;8401029;28;19928;-70
2022/03/10 14:13:28;;;;;;;;;;;18.70;48.40;;;;;;8412280;28;19928;-70
2022/03/10 14:17:40;;;;;;;;;;;18.70;48.60;;;;;;8416245;28;19920;-70
2022/03/10 14:21:49;;;;;;;;;;;18.80;49.10;;;;;;8415246;28;19947;-70
2022/03/10 14:25:55;;;;;;;;;;;18.80;49.20;;;;;;8413406;28;19943;-70
2022/03/10 14:30:00;;;;;;;;;;;19.00;49.40;;;;;;8400478;28;19920;-70
2022/03/10 14:34:01;;;;;;;;;;;19.40;50.60;;;;;;8421558;28;20378;-70
2022/03/10 14:38:03;;;;;;;;;;;20.00;53.10;;;;;;8415780;28;20382;-70
2022/03/10 14:42:05;;;;;;;;;;;20.80;54.20;;;;;;8418341;28;19920;-70
2022/03/10 14:46:07;;;;;;;;;;;21.70;55.10;;;;;;8420038;28;20283;-71
2022/03/10 14:50:09;;;;;;;;;;;22.50;57.80;;;;;;8410735;28;20338;-70
2022/03/10 14:54:10;;;;;;;;;;;23.30;56.90;;;;;;8398818;28;20198;-70
2022/03/10 14:58:12;;;;;;;;;;;23.50;57.40;;;;;;8404255;28;20027;-70
2022/03/10 15:02:13;;;;;;;;;;;23.80;54.30;;;;;;8420540;28;19927;-70
2022/03/10 15:06:16;;;;;;;;;;;23.90;56.40;;;;;;8422532;28;19951;-70
2022/03/10 15:10:18;;;;;;;;;;;24.20;56.30;;;;;;8422669;28;20393;-70
2022/03/10 15:14:20;;;;;;;;;;;24.80;57.00;;;;;;8426785;28;19920;-70
2022/03/10 15:18:21;;;;;;;;;;;25.40;52.00;;;;;;8428701;28;19927;-70
2022/03/10 15:22:23;;;;;;;;;;;25.00;49.70;;;;;;8424576;28;19920;-70
2022/03/10 15:26:25;;;;;;;;;;;24.50;51.00;;;;;;8421547;28;19931;-70
2022/03/10 15:30:28;;;;;;;16.05;11.40;;;24.30;49.70;;;;;;8394048;28;19928;-71
2022/03/10 15:34:30;;;;;;;19.33;13.02;;;24.00;49.10;;;;;;8396902;28;20048;-71
2022/03/10 15:38:35;;;;;;;;;;;23.70;48.40;;;;;;8405201;28;20048;-71
2022/03/10 15:42:37;;;;;;;;;;;23.10;44.00;;;;;;8398341;28;19920;-70
2022/03/10 15:46:38;;;;;;;;;;;22.80;46.20;;;;;;8406079;28;19942;-70
2022/03/10 15:50:40;;;;;;;;;;;23.10;46.40;;;;;;8399360;28;19920;-71
2022/03/10 15:54:42;;;;;;;;;;;23.10;46.50;;;;;;8404330;28;20231;-71
2022/03/10 15:58:44;;;;;;;;;;;23.20;46.30;;;;;;8410064;28;19932;-71
2022/03/10 16:02:47;;;;;;;;;;;23.20;46.70;;;;;;8404111;28;19924;-71
2022/03/10 16:06:50;;;;;;;;;;;23.30;46.30;;;;;;8419136;28;20014;-71
2022/03/10 16:10:52;;;;;;;;;;;23.00;45.70;;;;;;8417622;28;19928;-71
2022/03/10 16:14:54;;;;;;;;;;;22.40;44.90;;;;;;8419386;28;19927;-70
2022/03/10 16:18:57;;;;;;;;;;;22.00;44.70;;;;;;8418412;28;20290;-70
2022/03/10 16:22:59;;;;;;;;;;;21.50;44.20;;;;;;8418254;28;19938;-70
2022/03/10 16:27:03;;;;;;;;;;;21.30;43.90;;;;;;8423222;28;19963;-70
2022/03/10 16:31:04;;;;;;;;;;;21.30;44.40;;;;;;8419673;28;19931;-70
2022/03/10 16:35:07;;;;;;;;;;;21.30;44.60;;;;;;8418037;28;19920;-71
2022/03/10 16:39:10;;;;;;;;;;;21.30;44.50;;;;;;8425453;28;19981;-71
2022/03/10 16:43:11;;;;;;;;;;;21.50;44.50;;;;;;8423715;28;19939;-70
2022/03/10 16:47:15;;;;;;;;;;;21.70;44.60;;;;;;8420898;28;19942;-71
2022/03/10 16:51:17;;;;;;;;;;;21.50;44.50;;;;;;8405370;28;19920;-71
2022/03/10 16:55:18;;;;;;;;;;;21.20;44.10;;;;;;8387949;28;20284;-71
2022/03/10 16:59:20;;;;;;;;;;;20.70;43.60;;;;;;8366919;28;20431;-71
2022/03/10 17:03:21;;;;;;;;;;;20.20;43.30;;;;;;8387417;28;19931;-70
2022/03/10 17:07:23;;;;;;;;;;;19.70;43.10;;;;;;8385294;28;20323;-70
2022/03/10 17:11:27;;;;;;;;;;;19.20;42.70;;;;;;8384921;28;20023;-70
2022/03/10 17:15:29;;;;;;;;;;;18.80;42.70;;;;;;8384355;28;19931;-70
2022/03/10 17:19:31;;;;;;;;;;;18.40;42.60;;;;;;8386995;28;19927;-70
2022/03/10 17:23:33;;;;;;;;;;;18.00;42.50;;;;;;8388021;28;19932;-70
2022/03/10 17:27:35;;;;;;;;;;;17.60;42.40;;;;;;8384628;28;20343;-70
2022/03/10 17:31:52;;;;;;;;;;;17.20;42.40;;;;;;8376891;28;19929;-70
2022/03/10 17:35:54;;;;;;;;;;;16.80;42.40;;;;;;8392217;28;19963;-70
2022/03/10 17:39:56;;;;;;;;;;;16.50;42.50;;;;;;8391960;28;19920;-70
2022/03/10 17:43:58;;;;;;;;;;;16.20;42.40;;;;;;8389243;28;19921;-70
2022/03/10 17:48:00;;;;;;;;;;;16.00;42.40;;;;;;8385474;28;19921;-71
2022/03/10 17:52:02;;;;;;;;;;;15.80;42.40;;;;;;8383966;28;19920;-70
2022/03/10 17:56:04;;;;;;;;;;;15.60;42.50;;;;;;8384675;28;19920;-70
2022/03/10 18:00:06;;;;;;;;;;;15.40;42.50;;;;;;8366338;28;19931;-70
2022/03/10 18:04:07;;;;;;;;;;;15.20;42.60;;;;;;8370179;28;24247;-70
2022/03/10 18:08:09;;;;;;;;;;;15.10;42.50;;;;;;8387971;28;19943;-70
2022/03/10 18:12:11;;;;;;;;;;;15.00;42.40;;;;;;8381124;28;19924;-70
2022/03/10 18:16:18;;;;;;;;;;;14.90;42.50;;;;;;8387053;28;20018;-70
2022/03/10 18:20:21;;;;;;;;;;;14.80;42.40;;;;;;8388278;28;20371;-70
2022/03/10 18:24:23;;;;;;;;;;;14.70;42.30;;;;;;8392245;28;20010;-70
2022/03/10 18:28:25;;;;;;;;;;;14.60;42.30;;;;;;8373441;28;19929;-70
2022/03/10 18:32:27;;;;;;;;;;;14.50;42.10;;;;;;8399961;28;19973;-71
2022/03/10 18:36:28;;;;;;;;;;;14.40;42.00;;;;;;8394106;28;20046;-70
2022/03/10 18:40:30;;;;;;;;;;;14.20;41.90;;;;;;8391482;28;20522;-70
2022/03/10 18:44:32;;;;;;;;;;;14.10;42.00;;;;;;8402213;28;19940;-70
2022/03/10 18:48:34;;;;;;;;;;;14.00;41.80;;;;;;8388448;28;19940;-70
2022/03/10 18:52:35;;;;;;;;;;;13.90;41.50;;;;;;8389296;28;19920;-70
2022/03/10 18:56:37;;;;;;;;;;;13.80;41.40;;;;;;8388966;28;19924;-70
2022/03/10 19:00:39;;;;;;;;;;;13.70;41.00;;;;;;8377223;28;19921;-70
2022/03/10 19:04:42;;;;;;;;;;;13.70;40.70;;;;;;8400556;28;19974;-70
2022/03/10 19:08:45;;;;;;;;;;;13.60;40.50;;;;;;8399371;28;19920;-70
2022/03/10 19:12:46;;;;;;;;;;;13.50;40.40;;;;;;8394815;28;19925;-70
2022/03/10 19:16:48;;;;;;;;;;;13.40;40.30;;;;;;8389200;28;20341;-70
2022/03/10 19:20:50;;;;;;;;;;;13.40;40.20;;;;;;8376738;28;19928;-70
2022/03/10 19:24:51;;;;;;;;;;;13.30;40.00;;;;;;8397176;28;20810;-70
2022/03/10 19:28:53;;;;;;;;;;;13.20;39.90;;;;;;8402337;28;20403;-70
2022/03/10 19:32:55;;;;;;;;;;;13.10;39.80;;;;;;8397370;28;19928;-70
2022/03/10 19:36:59;;;;;;;;;;;13.00;39.70;;;;;;8396968;28;19928;-70
2022/03/10 19:41:02;;;;;;;;;;;12.90;39.50;;;;;;8397869;28;19927;-70
2022/03/10 19:45:04;;;;;;;;;;;12.80;39.50;;;;;;8390553;28;19924;-70
2022/03/10 19:49:06;;;;;;;;;;;12.70;39.40;;;;;;8397602;28;19924;-70
2022/03/10 19:53:08;;;;;;;;;;;12.70;39.30;;;;;;8398553;28;19920;-70
2022/03/10 19:57:10;;;;;;;;;;;12.60;39.30;;;;;;8388722;28;19974;-70
2022/03/10 20:01:11;;;;;;;;;;;12.60;39.30;;;;;;8398018;28;19935;-70
2022/03/10 20:05:13;;;;;;;;;;;12.60;39.30;;;;;;8396481;28;21084;-70
2022/03/10 20:09:15;;;;;;;;;;;12.50;39.20;;;;;;8409823;28;19995;-70
2022/03/10 20:13:17;;;;;;;;;;;12.50;39.20;;;;;;8395988;28;20237;-70
2022/03/10 20:17:18;;;;;;;;;;;12.40;39.60;;;;;;8398188;28;19924;-70
2022/03/10 20:21:21;;;;;;;;;;;12.40;39.00;;;;;;8394469;28;19930;-70
2022/03/10 20:25:22;;;;;;;;;;;12.30;38.80;;;;;;8400186;28;19924;-70
2022/03/10 20:29:24;;;;;;;;;;;12.30;38.90;;;;;;8394497;28;20403;-69
2022/03/10 20:33:26;;;;;;;;;;;12.20;38.70;;;;;;8391554;28;20391;-70
2022/03/10 20:37:28;;;;;;;;;;;12.10;38.80;;;;;;8394784;28;19920;-71
2022/03/10 20:41:30;;;;;;;;;;;12.10;38.90;;;;;;8397372;28;20399;-70
2022/03/10 20:45:31;;;;;;;;;;;12.00;38.70;;;;;;8396751;28;19931;-70
2022/03/10 20:49:33;;;;;;;;;;;11.90;38.70;;;;;;8391334;28;19931;-70
2022/03/10 20:53:35;;;;;;;;;;;11.80;38.90;;;;;;8391122;28;20371;-70
2022/03/10 20:57:37;;;;;;;;;;;11.80;39.00;;;;;;8393030;28;19925;-70
2022/03/10 21:01:38;;;;;;;;;;;11.80;39.00;;;;;;8395340;28;19924;-70
2022/03/10 21:05:45;;;;;;;;;;;11.70;38.90;;;;;;8399064;28;19931;-70
2022/03/10 21:09:46;;;;;;;;;;;11.60;39.00;;;;;;8393820;28;19928;-70
2022/03/10 21:13:51;;;;;;;;;;;11.50;38.90;;;;;;8372201;28;19928;-70
2022/03/10 21:17:52;;;;;;;;;;;11.50;39.00;;;;;;8388623;28;19932;-70
2022/03/10 21:21:54;;;;;;;;;;;11.50;38.90;;;;;;8399405;28;20318;-70
2022/03/10 21:25:56;;;;;;;;;;;11.40;39.30;;;;;;8393785;28;19920;-70
2022/03/10 21:29:58;;;;;;;;;;;11.30;38.90;;;;;;8389985;28;19920;-70
2022/03/10 21:33:59;;;;;;;;;;;11.30;38.90;;;;;;8374970;28;19924;-70
2022/03/10 21:38:01;;;;;;;;;;;11.20;39.10;;;;;;8392545;28;20045;-70
2022/03/10 21:42:04;;;;;;;;;;;11.10;39.30;;;;;;8393025;28;19952;-69
2022/03/10 21:46:06;;;;;;;;;;;11.00;39.40;;;;;;8388990;28;19920;-69
2022/03/10 21:50:08;;;;;;;;;;;10.90;39.40;;;;;;8392115;28;19964;-70
2022/03/10 21:54:31;;;;;;;;;;;10.80;39.30;;;;;;8394800;28;20073;-70
2022/03/10 21:58:33;;;;;;;;;;;10.80;39.20;;;;;;8395745;28;19959;-70
2022/03/10 22:02:34;;;;;;;;;;;10.70;39.60;;;;;;8401562;28;20015;-70
2022/03/10 22:06:37;;;;;;;;;;;10.60;39.20;;;;;;8427858;28;19927;-70
2022/03/10 22:10:40;;;;;;;;;;;10.60;39.40;;;;;;8418158;28;19920;-70
2022/03/10 22:14:41;;;;;;;;;;;10.50;39.70;;;;;;8418887;28;19928;-70
2022/03/10 22:18:43;;;;;;;;;;;10.50;39.60;;;;;;8416855;28;19963;-70
2022/03/10 22:22:45;;;;;;;;;;;10.40;39.60;;;;;;8400203;28;19931;-70
2022/03/10 22:26:47;;;;;;;;;;;10.40;39.70;;;;;;8416980;28;19932;-70
2022/03/10 22:30:49;;;;;;;;;;;10.40;39.70;;;;;;8419142;28;19924;-70
2022/03/10 22:34:51;;;;;;;;;;;10.30;40.10;;;;;;8415158;28;19920;-70
2022/03/10 22:38:53;;;;;;;;;;;10.30;40.10;;;;;;8398876;28;20249;-70
2022/03/10 22:42:54;;;;;;;;;;;10.20;40.10;;;;;;8383470;28;20406;-70
2022/03/10 22:46:56;;;;;;;;;;;10.20;40.90;;;;;;8410931;28;19927;-69
2022/03/10 22:55:18;;;;;;;;;;;10.20;40.50;;;;;;8417731;28;19920;-70
2022/03/10 22:59:21;;;;;;;;;;;10.10;40.20;;;;;;8408783;28;19928;-70
2022/03/10 23:03:22;;;;;;;;;;;10.10;40.10;;;;;;8407334;28;19923;-70
2022/03/10 23:07:28;;;;;;;;;;;10.10;40.30;;;;;;8408293;28;19967;-69
2022/03/10 23:11:29;;;;;;;;;;;10.00;40.00;;;;;;8413565;28;19965;-70
2022/03/10 23:15:31;;;;;;;;;;;9.90;40.90;;;;;;8412009;28;19920;-70
2022/03/10 23:19:34;;;;;;;;;;;9.90;41.00;;;;;;8393944;28;19920;-70
2022/03/10 23:23:35;;;;;;;;;;;9.80;41.10;;;;;;8427206;28;19927;-70
2022/03/10 23:27:39;;;;;;;;;;;9.80;41.40;;;;;;8413212;28;19920;-70
2022/03/10 23:31:41;;;;;;;;;;;9.70;41.00;;;;;;8403499;28;19928;-70
2022/03/10 23:35:42;;;;;;;;;;;9.60;41.70;;;;;;8416749;28;19954;-70
2022/03/10 23:39:45;;;;;;;;;;;9.60;41.20;;;;;;8410712;28;19928;-70
2022/03/10 23:43:50;;;;;;;;;;;9.50;41.50;;;;;;8417662;28;19924;-70
2022/03/10 23:47:51;;;;;;;;;;;9.50;41.00;;;;;;8411240;28;20347;-69